Time;durP1;ratioP1;P1;durP2;ratioP2;P2;SDS_P1;SDS_P2;PMS_P1;PMS_P2;Temp;Humidity;BMP_temperature;BMP_pressure;BME280_temperature;BME280_humidity;BME280_pressure;Samples;Min_cycle;Max_cycle;Signal;HPM_P1;HPM_P2
2022/12/28 00:01:12;;;;;;;7.30;3.65;;;6.30;99.90;;;;;;4808937;29;20052;-64
2022/12/28 00:03:37;;;;;;;10.40;5.10;;;6.30;99.90;;;;;;4806957;29;20091;-63
2022/12/28 00:06:05;;;;;;;9.45;4.43;;;6.30;99.90;;;;;;4809055;29;20046;-64
2022/12/28 00:08:31;;;;;;;12.00;4.72;;;6.40;99.90;;;;;;4809042;29;20055;-65
2022/12/28 00:11:05;;;;;;;12.43;4.50;;;6.30;99.90;;;;;;4824688;29;20038;-63
2022/12/28 00:13:32;;;;;;;7.55;4.63;;;6.30;99.90;;;;;;4793414;29;20035;-64
2022/12/28 00:16:05;;;;;;;7.90;4.70;;;6.30;99.90;;;;;;4806521;29;20062;-64
2022/12/28 00:18:33;;;;;;;10.45;4.97;;;6.30;99.90;;;;;;4808577;29;20124;-63
2022/12/28 00:21:00;;;;;;;9.80;4.30;;;6.30;99.90;;;;;;4822468;29;20058;-63
2022/12/28 00:23:27;;;;;;;10.40;5.60;;;6.40;99.90;;;;;;4810316;29;20074;-63
2022/12/28 00:25:52;;;;;;;10.30;4.90;;;6.30;99.90;;;;;;4808918;29;20050;-63
2022/12/28 00:28:18;;;;;;;10.98;5.22;;;6.20;99.90;;;;;;4808697;29;20057;-64
2022/12/28 00:30:44;;;;;;;7.75;4.63;;;6.30;99.90;;;;;;4808728;29;20042;-64
2022/12/28 00:33:10;;;;;;;8.98;4.40;;;6.30;99.90;;;;;;4826602;29;20367;-64
2022/12/28 00:35:35;;;;;;;7.70;4.47;;;6.30;99.90;;;;;;4808612;29;20131;-64
2022/12/28 00:38:01;;;;;;;12.02;4.85;;;6.20;99.90;;;;;;4824608;29;20468;-64
2022/12/28 00:40:26;;;;;;;9.90;4.65;;;6.20;99.90;;;;;;4808094;29;20379;-62
2022/12/28 00:42:52;;;;;;;11.00;4.40;;;6.30;99.90;;;;;;4809911;29;20050;-64
2022/12/28 00:45:17;;;;;;;7.63;4.03;;;6.30;99.90;;;;;;4808666;29;20253;-64
2022/12/28 00:47:43;;;;;;;8.45;3.85;;;6.30;99.90;;;;;;4824735;29;20153;-63
2022/12/28 00:50:09;;;;;;;7.28;4.10;;;6.30;99.90;;;;;;4808004;29;20496;-63
2022/12/28 00:52:34;;;;;;;6.85;3.55;;;6.30;99.90;;;;;;4809911;29;20050;-64
2022/12/28 00:55:00;;;;;;;11.35;4.03;;;6.30;99.90;;;;;;4808276;29;20046;-64
2022/12/28 00:57:25;;;;;;;9.77;4.82;;;6.30;99.90;;;;;;4824309;29;20046;-62
2022/12/28 00:59:51;;;;;;;8.88;3.97;;;6.20;99.90;;;;;;4823871;29;20142;-63
2022/12/28 01:02:17;;;;;;;9.40;5.15;;;6.20;99.90;;;;;;4806011;29;20041;-65
2022/12/28 01:04:42;;;;;;;8.18;4.53;;;6.30;99.90;;;;;;4808203;29;20039;-64
2022/12/28 01:07:08;;;;;;;10.23;4.65;;;6.30;99.90;;;;;;4823805;29;20054;-62
2022/12/28 01:09:33;;;;;;;10.57;4.63;;;6.30;99.90;;;;;;4824229;29;20252;-62
2022/12/28 01:11:59;;;;;;;8.93;4.72;;;6.30;99.90;;;;;;4825164;29;20129;-62
2022/12/28 01:14:25;;;;;;;9.23;4.63;;;6.40;99.90;;;;;;4806199;29;20042;-62
2022/12/28 01:16:50;;;;;;;9.00;4.75;;;6.40;99.90;;;;;;4807035;29;20125;-62
2022/12/28 01:19:19;;;;;;;8.82;4.68;;;6.30;99.90;;;;;;4807882;29;20055;-62
2022/12/28 01:21:48;;;;;;;8.88;4.90;;;6.30;99.90;;;;;;4824016;29;20068;-63
2022/12/28 01:24:14;;;;;;;9.15;5.05;;;6.40;99.90;;;;;;4793233;29;20050;-63
2022/12/28 01:26:39;;;;;;;9.00;5.15;;;6.40;99.90;;;;;;4824031;29;20042;-63
2022/12/28 01:29:05;;;;;;;9.27;4.70;;;6.30;99.90;;;;;;4807487;29;20050;-63
2022/12/28 01:31:31;;;;;;;7.70;5.15;;;6.30;99.90;;;;;;4823485;29;20046;-64
2022/12/28 01:33:57;;;;;;;8.30;4.32;;;6.40;99.90;;;;;;4808249;29;20432;-63
2022/12/28 01:36:25;;;;;;;12.63;5.32;;;6.40;99.90;;;;;;4807300;29;20491;-63
2022/12/28 01:38:56;;;;;;;8.40;3.75;;;6.40;99.90;;;;;;4807399;29;20046;-63
2022/12/28 01:41:22;;;;;;;10.07;4.60;;;6.40;99.90;;;;;;4806425;29;20209;-62
2022/12/28 01:43:51;;;;;;;10.27;5.03;;;6.40;99.90;;;;;;4808551;29;20058;-63
2022/12/28 01:46:23;;;;;;;10.38;4.72;;;6.50;99.90;;;;;;4807207;29;20390;-63
2022/12/28 01:48:56;;;;;;;10.98;4.70;;;6.50;99.90;;;;;;4806937;29;20042;-63
2022/12/28 01:51:24;;;;;;;8.17;4.77;;;6.50;99.90;;;;;;4805225;29;20121;-64
2022/12/28 01:53:52;;;;;;;7.60;4.15;;;6.60;99.90;;;;;;4824467;29;20121;-63
2022/12/28 01:56:18;;;;;;;11.00;4.45;;;6.50;99.90;;;;;;4804969;29;20056;-62
2022/12/28 01:58:44;;;;;;;11.55;4.20;;;6.60;99.90;;;;;;4807404;29;20125;-62
2022/12/28 02:01:10;;;;;;;9.10;4.43;;;6.60;99.90;;;;;;4807125;29;20051;-63
2022/12/28 02:03:36;;;;;;;7.03;4.10;;;6.50;99.90;;;;;;4807796;29;20050;-63
2022/12/28 02:06:07;;;;;;;8.10;4.63;;;6.60;99.90;;;;;;4806941;29;20086;-64
2022/12/28 02:09:06;;;;;;;8.95;4.80;;;6.60;99.90;;;;;;4806976;29;20074;-63
2022/12/28 02:11:32;;;;;;;9.38;4.88;;;6.60;99.90;;;;;;4805700;29;20053;-64
2022/12/28 02:13:58;;;;;;;10.35;4.65;;;6.70;99.90;;;;;;4823255;29;20043;-63
2022/12/28 02:16:24;;;;;;;9.10;4.97;;;6.70;99.90;;;;;;4806916;29;20126;-64
2022/12/28 02:18:51;;;;;;;8.32;4.50;;;6.70;99.90;;;;;;4806575;29;20214;-63
2022/12/28 02:21:17;;;;;;;12.57;5.40;;;6.90;99.90;;;;;;4819016;29;20058;-62
2022/12/28 02:24:09;;;;;;;8.77;4.47;;;6.80;99.90;;;;;;4807843;29;20046;-62
2022/12/28 02:27:20;;;;;;;11.55;5.07;;;6.80;99.90;;;;;;4806442;29;20073;-62
2022/12/28 02:29:51;;;;;;;7.45;4.85;;;6.90;99.90;;;;;;4802226;29;20129;-63
2022/12/28 02:32:55;;;;;;;7.35;4.72;;;6.80;99.90;;;;;;4790170;29;20459;-64
2022/12/28 02:35:29;;;;;;;12.10;5.38;;;6.90;99.90;;;;;;4804662;29;20070;-63
2022/12/28 02:38:01;;;;;;;10.13;4.63;;;6.90;99.90;;;;;;4791496;29;20087;-63
2022/12/28 02:40:48;;;;;;;7.70;4.97;;;6.90;99.90;;;;;;4806252;29;20038;-62
2022/12/28 02:43:14;;;;;;;8.35;4.90;;;6.80;99.90;;;;;;4806945;29;20047;-64
2022/12/28 02:51:18;;;;;;;8.88;4.88;;;6.80;99.90;;;;;;4805316;29;20311;-63
2022/12/28 02:56:05;;;;;;;8.20;4.90;;;6.90;99.90;;;;;;4821824;29;20081;-63
2022/12/28 02:57:07;;;;;;;9.18;4.80;;;6.80;99.90;;;;;;4822802;29;20054;-63
2022/12/28 02:59:56;;;;;;;8.82;4.85;;;6.90;99.90;;;;;;4806402;29;20120;-63
2022/12/28 03:02:50;;;;;;;9.88;4.80;;;6.90;99.90;;;;;;4822738;29;20360;-63
2022/12/28 03:08:38;;;;;;;8.27;5.00;;;7.00;99.90;;;;;;4804785;29;20125;-63
2022/12/28 03:11:08;;;;;;;7.35;4.70;;;7.00;99.90;;;;;;4820916;29;20201;-63
2022/12/28 03:13:44;;;;;;;9.48;5.10;;;6.90;99.90;;;;;;4806631;29;20153;-63
2022/12/28 03:25:41;;;;;;;9.75;5.40;;;7.00;99.90;;;;;;4823181;29;20047;-64
2022/12/28 03:33:10;;;;;;;8.82;5.40;;;7.00;99.90;;;;;;4821785;29;20046;-63
2022/12/28 03:35:49;;;;;;;7.70;4.65;;;6.90;99.90;;;;;;4822231;29;20042;-64
2022/12/28 03:38:30;;;;;;;7.78;4.85;;;7.00;99.90;;;;;;4822131;29;20511;-65
2022/12/28 03:41:07;;;;;;;7.75;5.20;;;7.00;99.90;;;;;;4824800;29;20050;-64
2022/12/28 03:43:45;;;;;;;7.55;5.45;;;7.00;99.90;;;;;;4828183;29;20042;-64
2022/12/28 03:46:33;;;;;;;7.32;5.57;;;7.00;99.90;;;;;;4825389;29;20456;-64
2022/12/28 03:49:00;;;;;;;7.88;5.90;;;6.90;99.90;;;;;;4823278;29;20082;-64
2022/12/28 03:51:29;;;;;;;10.40;6.00;;;7.00;99.90;;;;;;4824870;29;20129;-63
2022/12/28 03:53:55;;;;;;;7.95;5.65;;;6.90;99.90;;;;;;4826036;29;20486;-63
2022/12/28 03:56:23;;;;;;;6.82;5.10;;;6.90;99.90;;;;;;4825469;29;20078;-64
2022/12/28 03:58:49;;;;;;;6.70;5.05;;;6.90;99.90;;;;;;4825228;29;20054;-63
2022/12/28 04:01:15;;;;;;;7.03;5.13;;;7.00;99.90;;;;;;4824791;29;20039;-63
2022/12/28 04:03:41;;;;;;;7.63;5.18;;;6.90;99.90;;;;;;4827459;29;20532;-64
2022/12/28 04:06:10;;;;;;;6.15;4.95;;;7.10;99.90;;;;;;4825194;29;20042;-62
2022/12/28 04:08:36;;;;;;;7.30;5.28;;;7.00;99.90;;;;;;4824863;29;20495;-62
2022/12/28 04:11:01;;;;;;;6.53;4.78;;;7.10;99.90;;;;;;4824854;29;20050;-64
2022/12/28 04:13:29;;;;;;;6.70;5.05;;;6.90;99.90;;;;;;4811067;29;20034;-65
2022/12/28 04:15:57;;;;;;;5.78;4.55;;;7.00;99.90;;;;;;4809139;29;20330;-62
2022/12/28 04:18:23;;;;;;;6.65;5.07;;;7.10;99.90;;;;;;4808631;29;20051;-64
2022/12/28 04:20:48;;;;;;;5.70;4.97;;;7.10;99.90;;;;;;4823798;29;20058;-63
2022/12/28 04:23:14;;;;;;;5.93;5.32;;;7.10;99.90;;;;;;4795552;29;20046;-65
2022/12/28 04:25:39;;;;;;;6.38;5.60;;;7.00;99.90;;;;;;4808939;29;20042;-63
2022/12/28 04:28:05;;;;;;;7.60;5.70;;;7.00;99.90;;;;;;4824673;29;20039;-63
2022/12/28 04:30:30;;;;;;;7.05;5.63;;;7.10;99.90;;;;;;4824561;29;20364;-64
2022/12/28 04:32:56;;;;;;;7.47;5.72;;;7.10;99.90;;;;;;4826868;29;20125;-62
2022/12/28 04:35:22;;;;;;;7.78;6.43;;;7.10;99.90;;;;;;4824772;29;20053;-62
2022/12/28 04:37:47;;;;;;;8.80;6.50;;;7.20;99.90;;;;;;4824678;29;20177;-64
2022/12/28 04:40:13;;;;;;;7.90;6.25;;;7.20;99.90;;;;;;4808391;29;20520;-63
2022/12/28 04:42:38;;;;;;;9.07;7.05;;;7.20;99.90;;;;;;4809181;29;20053;-62
2022/12/28 04:45:05;;;;;;;9.07;6.72;;;7.20;99.90;;;;;;4824738;29;20042;-63
2022/12/28 04:47:30;;;;;;;7.43;6.40;;;7.20;99.90;;;;;;4824480;29;20433;-64
2022/12/28 04:49:56;;;;;;;8.27;7.00;;;7.40;99.90;;;;;;4823841;29;20106;-64
2022/12/28 04:52:21;;;;;;;8.40;7.43;;;7.30;99.90;;;;;;4793694;29;20046;-64
2022/12/28 04:54:47;;;;;;;9.55;6.88;;;7.30;99.90;;;;;;4824589;29;20074;-64
2022/12/28 04:57:13;;;;;;;9.23;6.70;;;7.40;99.90;;;;;;4808476;29;20060;-63
2022/12/28 04:59:39;;;;;;;7.55;6.75;;;7.40;99.90;;;;;;4805279;29;20042;-63
2022/12/28 05:02:05;;;;;;;9.32;7.55;;;7.40;99.90;;;;;;4824755;29;20050;-63
2022/12/28 05:04:31;;;;;;;8.25;7.45;;;7.50;99.90;;;;;;4824415;29;20406;-63
2022/12/28 05:06:56;;;;;;;8.57;7.60;;;7.40;99.90;;;;;;4821677;29;20057;-63
2022/12/28 05:09:22;;;;;;;8.82;7.93;;;7.50;99.90;;;;;;4824270;29;20104;-63
2022/12/28 05:11:48;;;;;;;9.50;6.75;;;7.50;99.90;;;;;;4824126;29;20039;-62
2022/12/28 05:14:14;;;;;;;8.55;7.55;;;7.50;99.90;;;;;;4808275;29;20145;-63
2022/12/28 05:16:39;;;;;;;8.63;7.55;;;7.60;99.90;;;;;;4824813;29;20118;-64
2022/12/28 05:19:05;;;;;;;9.68;8.43;;;7.60;99.90;;;;;;4807872;29;20054;-63
2022/12/28 05:21:31;;;;;;;8.07;7.28;;;7.60;99.90;;;;;;4823528;29;20057;-64
2022/12/28 05:23:57;;;;;;;9.40;8.40;;;7.70;99.90;;;;;;4825829;29;20057;-64
2022/12/28 05:26:25;;;;;;;9.43;7.90;;;7.70;99.90;;;;;;4824241;29;20062;-63
2022/12/28 05:28:51;;;;;;;8.75;7.72;;;7.80;99.90;;;;;;4823653;29;20614;-63
2022/12/28 05:31:20;;;;;;;9.18;7.75;;;7.70;99.90;;;;;;4821162;29;20050;-62
2022/12/28 05:33:46;;;;;;;8.38;7.57;;;7.70;99.90;;;;;;4824515;29;20459;-64
2022/12/28 05:36:25;;;;;;;10.80;7.90;;;7.70;99.90;;;;;;4823955;29;20112;-64
2022/12/28 05:38:53;;;;;;;8.27;7.22;;;7.90;99.90;;;;;;4823779;29;20452;-64
2022/12/28 05:41:27;;;;;;;9.15;7.72;;;7.90;99.90;;;;;;4822539;29;20074;-63
2022/12/28 05:43:53;;;;;;;;;;;7.80;99.90;;;;;;4809473;29;20057;-64
2022/12/28 05:46:25;;;;;;;8.68;7.70;;;8.00;99.90;;;;;;4821957;29;19932;-62
2022/12/28 05:48:53;;;;;;;9.73;8.45;;;7.90;99.90;;;;;;4823693;29;20038;-63
2022/12/28 05:51:22;;;;;;;9.63;8.65;;;7.90;99.90;;;;;;4804868;29;20061;-62
2022/12/28 05:53:48;;;;;;;11.32;8.88;;;8.10;99.90;;;;;;4807460;29;20046;-62
2022/12/28 05:56:22;;;;;;;10.05;8.77;;;7.90;99.90;;;;;;4823887;29;20034;-63
2022/12/28 05:58:52;;;;;;;;;;;8.10;99.90;;;;;;4824106;29;20137;-63
2022/12/28 06:01:19;;;;;;;10.48;9.30;;;7.90;99.90;;;;;;4820652;29;19966;-63
2022/12/28 06:03:47;;;;;;;11.45;9.23;;;8.10;99.90;;;;;;4824797;29;20038;-64
2022/12/28 06:06:15;;;;;;;9.68;8.77;;;8.20;99.90;;;;;;4823563;29;20073;-63
2022/12/28 06:08:42;;;;;;;9.57;8.73;;;8.00;99.90;;;;;;4823487;29;20118;-64
2022/12/28 06:11:11;;;;;;;10.02;8.90;;;8.10;99.90;;;;;;4823167;29;20137;-64
2022/12/28 06:13:37;;;;;;;10.38;9.27;;;8.20;99.90;;;;;;4824384;29;20375;-64
2022/12/28 06:16:12;;;;;;;10.15;8.98;;;8.20;99.90;;;;;;4823594;29;20034;-64
2022/12/28 06:18:37;;;;;;;10.27;9.20;;;8.20;99.90;;;;;;4822410;29;20085;-64
2022/12/28 06:21:03;;;;;;;10.80;9.70;;;8.20;99.90;;;;;;4822913;29;20082;-64
2022/12/28 06:23:28;;;;;;;10.73;9.63;;;8.10;99.90;;;;;;4824403;29;20404;-63
2022/12/28 06:25:57;;;;;;;10.70;9.57;;;8.10;99.90;;;;;;4806733;29;20046;-63
2022/12/28 06:28:22;;;;;;;11.68;10.45;;;8.10;99.90;;;;;;4806738;29;20054;-63
2022/12/28 06:30:48;;;;;;;11.38;10.25;;;8.10;99.90;;;;;;4822871;29;20432;-63
2022/12/28 06:33:14;;;;;;;11.68;10.25;;;8.10;99.90;;;;;;4808428;29;20136;-64
2022/12/28 06:35:40;;;;;;;11.10;9.88;;;8.10;99.90;;;;;;4823290;29;20073;-63
2022/12/28 06:38:06;;;;;;;9.98;8.98;;;8.20;99.90;;;;;;4823006;29;20149;-62
2022/12/28 06:40:32;;;;;;;11.73;10.52;;;8.10;99.90;;;;;;4823084;29;20046;-62
2022/12/28 06:42:57;;;;;;;11.30;10.13;;;8.10;99.90;;;;;;4824242;29;20073;-63
2022/12/28 06:45:23;;;;;;;10.57;9.55;;;8.10;99.90;;;;;;4823137;29;20452;-63
2022/12/28 06:47:48;;;;;;;10.98;9.63;;;8.30;99.90;;;;;;4806502;29;20048;-62
2022/12/28 06:50:14;;;;;;;11.40;9.10;;;8.30;99.90;;;;;;4806463;29;20035;-63
2022/12/28 06:52:40;;;;;;;11.57;9.70;;;8.30;99.90;;;;;;4823529;29;20372;-62
2022/12/28 06:55:06;;;;;;;10.45;9.40;;;8.30;99.90;;;;;;4822751;29;20145;-62
2022/12/28 06:57:31;;;;;;;10.63;9.32;;;8.40;99.90;;;;;;4822950;29;20105;-62
2022/12/28 06:59:57;;;;;;;12.20;9.60;;;8.20;99.90;;;;;;4816968;29;20113;-63
2022/12/28 07:02:22;;;;;;;10.10;9.05;;;8.20;99.90;;;;;;4805508;29;20078;-63
2022/12/28 07:04:48;;;;;;;11.48;9.98;;;8.20;99.90;;;;;;4817007;29;20369;-64
2022/12/28 07:07:13;;;;;;;10.48;9.35;;;8.30;99.90;;;;;;4812862;29;20418;-65
2022/12/28 07:09:39;;;;;;;10.23;8.82;;;8.30;99.90;;;;;;4808788;29;20045;-63
2022/12/28 07:12:05;;;;;;;9.85;8.45;;;8.20;99.90;;;;;;4818181;29;20096;-63
2022/12/28 07:14:31;;;;;;;9.75;8.60;;;8.40;99.90;;;;;;4814145;29;20070;-62
2022/12/28 07:16:57;;;;;;;9.45;8.45;;;8.30;99.90;;;;;;4799409;29;20043;-64
2022/12/28 07:19:23;;;;;;;10.77;8.30;;;8.40;99.90;;;;;;4821986;29;20123;-63
2022/12/28 07:21:48;;;;;;;11.13;8.60;;;8.40;99.90;;;;;;4784145;29;20053;-63
2022/12/28 07:24:14;;;;;;;12.05;7.97;;;8.30;99.90;;;;;;4810288;29;20042;-65
2022/12/28 07:26:40;;;;;;;11.10;8.63;;;8.40;99.90;;;;;;4809703;29;20125;-64
2022/12/28 07:29:06;;;;;;;11.05;7.85;;;8.30;99.90;;;;;;4808996;29;20050;-63
2022/12/28 07:31:35;;;;;;;8.02;7.22;;;8.40;99.90;;;;;;4825257;29;20042;-65
2022/12/28 07:34:01;;;;;;;10.55;7.80;;;8.50;99.90;;;;;;4795100;29;20504;-65
2022/12/28 07:36:28;;;;;;;9.93;7.80;;;8.60;99.90;;;;;;4825110;29;20050;-63
2022/12/28 07:38:55;;;;;;;8.85;7.55;;;8.50;99.90;;;;;;4809105;29;20062;-64
2022/12/28 07:41:23;;;;;;;10.45;7.40;;;8.50;99.90;;;;;;4808144;29;20487;-63
2022/12/28 07:43:49;;;;;;;10.13;7.20;;;8.60;99.90;;;;;;4808926;29;20129;-63
2022/12/28 07:46:21;;;;;;;9.30;7.70;;;8.60;99.90;;;;;;4808940;29;20061;-63
2022/12/28 07:48:47;;;;;;;8.18;7.20;;;8.70;99.90;;;;;;4808799;29;20069;-63
2022/12/28 07:51:34;;;;;;;9.00;8.05;;;8.50;99.90;;;;;;4808747;29;20070;-63
2022/12/28 07:54:00;;;;;;;11.63;7.40;;;8.70;99.90;;;;;;4793947;29;20053;-63
2022/12/28 07:56:27;;;;;;;10.80;8.20;;;8.60;99.90;;;;;;4825157;29;20042;-64
2022/12/28 07:58:56;;;;;;;9.88;7.78;;;8.70;99.90;;;;;;4808887;29;20139;-64
2022/12/28 08:01:23;;;;;;;10.00;8.00;;;8.60;99.90;;;;;;4808430;29;20035;-63
2022/12/28 08:03:56;;;;;;;10.30;8.30;;;8.60;99.90;;;;;;4824361;29;20053;-63
2022/12/28 08:06:23;;;;;;;8.48;7.55;;;8.70;99.90;;;;;;4823997;29;20050;-63
2022/12/28 08:08:52;;;;;;;10.15;8.18;;;8.70;99.90;;;;;;4823927;29;20500;-63
2022/12/28 08:11:22;;;;;;;10.73;8.88;;;8.50;99.90;;;;;;4823274;29;20153;-64
2022/12/28 08:13:50;;;;;;;10.30;8.20;;;8.50;99.90;;;;;;4824042;29;20046;-64
2022/12/28 08:16:17;;;;;;;9.45;8.32;;;8.60;99.90;;;;;;4808666;29;20038;-63
2022/12/28 08:18:43;;;;;;;9.30;7.50;;;8.70;99.90;;;;;;4824377;29;20058;-64
2022/12/28 08:21:14;;;;;;;9.63;8.18;;;8.60;99.90;;;;;;4809533;29;20085;-62
2022/12/28 08:23:40;;;;;;;8.68;7.30;;;8.60;99.90;;;;;;4807357;29;20046;-63
2022/12/28 08:26:07;;;;;;;8.75;7.43;;;8.70;99.90;;;;;;4824385;29;20064;-64
2022/12/28 08:28:33;;;;;;;10.35;7.60;;;8.70;99.90;;;;;;4824959;29;20190;-64
2022/12/28 08:31:05;;;;;;;8.43;7.18;;;8.70;99.90;;;;;;4824452;29;20128;-62
2022/12/28 08:33:31;;;;;;;8.15;6.57;;;8.80;99.90;;;;;;4825419;29;20049;-64
2022/12/28 08:35:56;;;;;;;9.57;7.15;;;8.70;99.90;;;;;;4824368;29;20050;-64
2022/12/28 08:38:22;;;;;;;7.15;6.45;;;8.70;99.90;;;;;;4808880;29;20050;-64
2022/12/28 08:40:55;;;;;;;7.03;6.22;;;8.70;99.90;;;;;;4824283;29;20352;-64
2022/12/28 08:43:21;;;;;;;7.30;6.00;;;8.80;99.90;;;;;;4786991;29;20079;-64
2022/12/28 08:46:06;;;;;;;7.03;6.22;;;8.80;99.90;;;;;;4824745;29;20376;-64
2022/12/28 08:48:32;;;;;;;;;;;8.80;99.90;;;;;;4824969;29;20042;-64
2022/12/28 08:51:07;;;;;;;7.30;5.80;;;9.00;99.90;;;;;;4822607;29;19925;-64
2022/12/28 08:53:33;;;;;;;7.65;5.68;;;9.00;99.90;;;;;;4824888;29;20051;-64
2022/12/28 08:56:20;;;;;;;6.90;5.82;;;9.00;99.90;;;;;;4820435;29;20481;-63
2022/12/28 08:58:47;;;;;;;8.90;6.55;;;9.00;99.90;;;;;;4823098;29;20058;-64
2022/12/28 09:01:15;;;;;;;8.52;6.18;;;8.90;99.90;;;;;;4822818;29;20089;-64
2022/12/28 09:03:42;;;;;;;7.90;5.65;;;8.90;99.90;;;;;;4822606;29;20042;-63
2022/12/28 09:06:11;;;;;;;7.63;6.18;;;9.00;99.90;;;;;;4823853;29;20061;-64
2022/12/28 09:08:38;;;;;;;8.80;6.15;;;9.00;99.90;;;;;;4822153;29;20133;-63
2022/12/28 09:11:06;;;;;;;8.82;6.70;;;9.00;99.90;;;;;;4823515;29;20061;-64
2022/12/28 09:13:33;;;;;;;7.50;6.45;;;9.10;99.90;;;;;;4826741;29;20054;-65
2022/12/28 09:16:04;;;;;;;8.60;6.75;;;8.90;99.90;;;;;;4824450;29;20061;-64
2022/12/28 09:18:30;;;;;;;9.35;6.90;;;9.00;99.90;;;;;;4823910;29;20065;-63
2022/12/28 09:20:55;;;;;;;8.35;6.60;;;9.00;99.90;;;;;;4823137;29;20062;-64
2022/12/28 09:23:22;;;;;;;10.45;6.72;;;9.00;99.90;;;;;;4824926;29;20065;-63
2022/12/28 09:25:47;;;;;;;7.93;7.00;;;9.10;99.90;;;;;;4822274;29;20550;-62
2022/12/28 09:28:13;;;;;;;9.73;7.18;;;9.10;99.90;;;;;;4816666;29;20104;-63
2022/12/28 09:30:39;;;;;;;7.93;6.35;;;9.00;99.90;;;;;;4815811;29;20095;-63
2022/12/28 09:35:49;;;;;;;8.18;6.90;;;9.20;99.90;;;;;;4823265;29;20075;-63
2022/12/28 09:38:15;;;;;;;7.97;6.30;;;9.20;99.90;;;;;;4818437;29;20046;-63
2022/12/28 09:40:41;;;;;;;8.02;6.53;;;9.20;99.90;;;;;;4807557;29;20375;-65
2022/12/28 09:43:11;;;;;;;8.30;6.40;;;9.10;99.90;;;;;;4807655;29;20121;-64
2022/12/28 09:45:36;;;;;;;7.40;6.60;;;9.20;99.90;;;;;;4823938;29;20068;-64
2022/12/28 09:48:07;;;;;;;7.95;6.40;;;9.10;99.90;;;;;;4822758;29;20460;-63
2022/12/28 09:50:34;;;;;;;6.60;5.55;;;9.20;99.90;;;;;;4822250;29;20053;-63
2022/12/28 09:53:14;;;;;;;7.97;5.97;;;9.10;99.90;;;;;;4823546;29;20175;-64
2022/12/28 09:55:42;;;;;;;8.48;6.13;;;9.20;99.90;;;;;;4803991;29;20046;-64
2022/12/28 09:58:15;;;;;;;8.63;6.45;;;9.30;99.90;;;;;;4822733;29;20050;-63
2022/12/28 10:00:45;;;;;;;7.45;6.43;;;9.20;99.90;;;;;;4790534;29;20365;-64
2022/12/28 10:03:15;;;;;;;7.93;6.15;;;9.20;99.90;;;;;;4807323;29;20471;-63
2022/12/28 10:05:41;;;;;;;7.82;6.20;;;9.10;99.90;;;;;;4822114;29;20461;-63
2022/12/28 10:08:12;;;;;;;9.18;6.03;;;9.20;99.90;;;;;;4807460;29;20046;-64
2022/12/28 10:10:40;;;;;;;8.35;6.95;;;9.30;99.90;;;;;;4823486;29;20061;-64
2022/12/28 10:13:22;;;;;;;9.60;7.53;;;9.30;99.90;;;;;;4823765;29;20034;-62
2022/12/28 10:15:54;;;;;;;7.88;6.97;;;9.30;99.90;;;;;;4789033;29;20055;-62
2022/12/28 10:18:26;;;;;;;11.38;7.68;;;9.30;99.90;;;;;;4820704;29;20050;-63
2022/12/28 10:20:52;;;;;;;8.63;7.70;;;9.30;99.90;;;;;;4801569;29;20058;-64
2022/12/28 10:23:26;;;;;;;9.68;8.68;;;9.20;99.90;;;;;;4803103;29;20058;-63
2022/12/28 10:25:54;;;;;;;9.87;8.33;;;9.20;99.90;;;;;;4802814;29;20776;-63
2022/12/28 10:28:23;;;;;;;8.82;7.93;;;9.20;99.90;;;;;;4803436;29;20426;-64
2022/12/28 10:31:06;;;;;;;9.98;8.45;;;9.30;99.90;;;;;;4803577;29;20050;-64
2022/12/28 10:33:36;;;;;;;8.73;7.82;;;9.10;99.90;;;;;;4804914;29;20860;-64
2022/12/28 10:36:02;;;;;;;8.60;7.70;;;9.10;99.90;;;;;;4802891;29;20047;-64
2022/12/28 10:38:31;;;;;;;8.77;7.80;;;9.30;99.90;;;;;;4805089;29;20043;-63
2022/12/28 10:41:08;;;;;;;8.77;7.90;;;9.20;99.90;;;;;;4804479;29;20141;-64
2022/12/28 10:43:37;;;;;;;8.02;7.22;;;9.30;99.90;;;;;;4805079;29;20055;-64
2022/12/28 10:46:06;;;;;;;9.35;8.07;;;9.10;99.90;;;;;;4802876;29;20464;-63
2022/12/28 10:48:35;;;;;;;8.15;7.35;;;9.30;99.90;;;;;;4805203;29;20042;-64
2022/12/28 10:51:10;;;;;;;9.35;8.13;;;9.10;99.90;;;;;;4806197;29;20043;-62
2022/12/28 10:53:46;;;;;;;8.80;7.18;;;9.10;99.90;;;;;;4808436;29;20054;-63
2022/12/28 10:56:11;;;;;;;8.15;7.30;;;9.30;99.90;;;;;;4808022;29;20039;-63
2022/12/28 10:58:42;;;;;;;8.52;7.07;;;9.10;99.90;;;;;;4805682;29;20050;-64
2022/12/28 11:01:13;;;;;;;10.02;8.32;;;9.20;99.90;;;;;;4807438;29;20486;-63
2022/12/28 11:04:01;;;;;;;11.82;8.88;;;9.10;99.90;;;;;;4804241;29;20081;-64
2022/12/28 11:06:29;;;;;;;7.90;7.10;;;9.10;99.90;;;;;;4805807;29;20054;-63
2022/12/28 11:09:19;;;;;;;8.05;7.25;;;9.20;99.90;;;;;;4807339;29;20472;-65
2022/12/28 11:11:46;;;;;;;7.65;6.95;;;9.30;99.90;;;;;;4807332;29;20078;-64
2022/12/28 11:14:32;;;;;;;7.40;6.60;;;9.30;99.90;;;;;;4808410;29;20085;-65
2022/12/28 11:17:18;;;;;;;7.15;6.30;;;9.20;99.90;;;;;;4807780;29;20043;-65
2022/12/28 11:19:44;;;;;;;7.55;6.75;;;9.10;99.90;;;;;;4815438;29;20111;-64
2022/12/28 11:22:12;;;;;;;7.68;6.80;;;9.10;99.90;;;;;;4825468;29;20042;-62
2022/12/28 11:24:41;;;;;;;8.32;6.90;;;9.10;99.90;;;;;;4825231;29;20113;-62
2022/12/28 11:27:12;;;;;;;7.38;6.18;;;9.30;99.90;;;;;;4824204;29;20077;-63
2022/12/28 11:29:40;;;;;;;6.60;5.90;;;9.10;99.90;;;;;;4806889;29;20038;-63
2022/12/28 11:32:20;;;;;;;6.72;6.05;;;9.10;99.90;;;;;;4809587;29;20061;-64
2022/12/28 11:34:51;;;;;;;7.72;6.85;;;9.20;99.90;;;;;;4825660;29;20125;-65
2022/12/28 11:37:17;;;;;;;7.20;6.30;;;9.30;99.90;;;;;;4823135;29;20034;-64
2022/12/28 11:39:45;;;;;;;6.88;6.18;;;9.10;99.90;;;;;;4825483;29;20098;-64
2022/12/28 11:42:31;;;;;;;8.05;6.85;;;9.20;99.90;;;;;;4825812;29;20046;-62
2022/12/28 11:45:16;;;;;;;7.22;6.53;;;9.10;99.90;;;;;;4823109;29;20054;-63
2022/12/28 11:47:45;;;;;;;7.72;6.95;;;9.20;99.90;;;;;;4824255;29;20046;-63
2022/12/28 11:50:40;;;;;;;8.45;7.18;;;9.20;99.90;;;;;;4809000;29;20095;-63
2022/12/28 11:53:32;;;;;;;9.35;7.05;;;9.20;99.90;;;;;;4825615;29;20065;-64
2022/12/28 11:56:06;;;;;;;7.20;6.47;;;9.10;99.90;;;;;;4823644;29;20483;-63
2022/12/28 11:58:34;;;;;;;;;;;9.20;99.90;;;;;;4809291;29;20471;-64
2022/12/28 12:01:01;;;;;;;6.90;6.20;;;9.20;99.90;;;;;;4808815;29;19929;-64
2022/12/28 12:03:55;;;;;;;7.18;6.20;;;9.20;99.90;;;;;;4810275;29;20046;-64
2022/12/28 12:06:41;;;;;;;7.28;6.22;;;9.10;99.90;;;;;;4822878;29;20050;-63
2022/12/28 12:09:27;;;;;;;6.45;5.53;;;9.10;99.90;;;;;;4811559;29;20940;-63
2022/12/28 12:12:28;;;;;;;6.38;5.10;;;9.10;99.90;;;;;;4808398;29;20371;-62
2022/12/28 12:15:01;;;;;;;6.70;5.25;;;9.30;99.90;;;;;;4799319;29;20605;-62
2022/12/28 12:17:44;;;;;;;5.93;5.32;;;9.10;99.90;;;;;;4807741;29;20121;-62
2022/12/28 12:20:43;;;;;;;6.15;5.50;;;9.30;99.90;;;;;;4821300;29;20125;-63
2022/12/28 12:23:20;;;;;;;6.15;5.10;;;9.20;99.90;;;;;;4808619;29;20046;-62
2022/12/28 12:25:52;;;;;;;5.55;4.40;;;9.20;99.90;;;;;;4823038;29;20042;-63
2022/12/28 12:28:46;;;;;;;4.93;4.43;;;9.20;99.90;;;;;;4822907;29;20050;-62
2022/12/28 12:31:17;;;;;;;4.82;3.95;;;9.20;99.90;;;;;;4823984;29;20353;-62
2022/12/28 12:33:46;;;;;;;4.20;3.80;;;9.30;99.90;;;;;;4826174;29;20050;-64
2022/12/28 12:36:15;;;;;;;4.00;3.20;;;9.20;99.90;;;;;;4808484;29;20046;-64
2022/12/28 12:39:14;;;;;;;4.45;3.55;;;9.20;99.90;;;;;;4808650;29;20056;-62
2022/12/28 12:41:53;;;;;;;5.15;3.80;;;9.30;99.90;;;;;;4825023;29;20042;-62
2022/12/28 12:44:28;;;;;;;4.30;3.40;;;9.30;99.90;;;;;;4806507;29;20053;-64
2022/12/28 12:47:16;;;;;;;4.15;3.35;;;9.30;99.90;;;;;;4808399;29;20461;-63
2022/12/28 12:49:53;;;;;;;4.43;3.20;;;9.40;99.90;;;;;;4806585;29;20042;-62
2022/12/28 12:52:52;;;;;;;5.28;3.33;;;9.30;99.90;;;;;;4806159;29;20050;-64
2022/12/28 12:55:59;;;;;;;4.05;3.33;;;9.20;99.90;;;;;;4805895;29;20054;-62
2022/12/28 12:58:31;;;;;;;4.53;3.00;;;9.30;99.90;;;;;;4821255;29;20050;-63
2022/12/28 13:01:31;;;;;;;3.95;3.00;;;9.30;99.90;;;;;;4824135;29;20081;-62
2022/12/28 13:04:08;;;;;;;4.40;2.88;;;9.20;99.90;;;;;;4808989;29;20130;-64
2022/12/28 13:06:38;;;;;;;4.10;3.08;;;9.30;99.90;;;;;;4808103;29;20049;-63
2022/12/28 13:09:05;;;;;;;3.42;2.78;;;9.20;99.90;;;;;;4823840;29;20043;-64
2022/12/28 13:11:35;;;;;;;5.32;3.00;;;9.20;99.90;;;;;;4824428;29;20107;-63
2022/12/28 13:14:01;;;;;;;3.63;2.55;;;9.40;99.90;;;;;;4823111;29;20042;-62
2022/12/28 13:16:29;;;;;;;4.30;2.60;;;9.40;99.90;;;;;;4823154;29;20048;-62
2022/12/28 13:18:56;;;;;;;3.30;2.50;;;9.40;99.90;;;;;;4822253;29;20528;-62
2022/12/28 13:21:23;;;;;;;4.35;2.58;;;9.40;99.90;;;;;;4786375;29;20050;-61
2022/12/28 13:23:51;;;;;;;3.42;2.67;;;9.40;99.90;;;;;;4808203;29;20137;-64
2022/12/28 13:26:27;;;;;;;4.47;2.97;;;9.40;99.90;;;;;;4803850;29;20054;-64
2022/12/28 13:28:57;;;;;;;4.05;2.60;;;9.30;99.90;;;;;;4799958;29;20086;-64
2022/12/28 13:31:38;;;;;;;3.88;2.55;;;9.40;99.90;;;;;;4802644;29;20122;-64
2022/12/28 13:34:12;;;;;;;2.70;2.35;;;9.40;99.90;;;;;;4789279;29;20045;-64
2022/12/28 13:36:47;;;;;;;3.83;2.40;;;9.40;99.90;;;;;;4806551;29;20445;-63
2022/12/28 13:39:13;;;;;;;2.92;2.30;;;9.40;99.90;;;;;;4807096;29;20046;-63